New Braunfels, TX (78132)

11:44 PM CDT on August 24, 2016 (GMT -0500)
Oakwood Estates | | Change Station

Elev 758 ft 29.72 °N, 98.14 °W | Updated 1 second ago

Clear
Clear
78.8 °F
Feels Like 82 °F
N
0.0
Wind Variable Wind from East
Gusts 0.0 mph

Today
High -- | Low -- °F
--% Chance of Precip.
Yesterday
High -- | Low -- °F
Precip. -- in
Pressure 30.05 in
Visibility 10.0 miles
Clouds Clear
Heat Index 82 °F
Dew Point 74 °F
Humidity 86%
Rainfall 0.00 in
Snow Depth Not available.
7:05 AM 8:03 PM
Waning Gibbous, 50% visible
METAR KBAZ 250351Z AUTO 15007KT 10SM CLR 25/22 A3008 RMK AO2 SLP176 T02500222
Pressure 30.05 in
Visibility 10.0 miles
Clouds Clear
Heat Index 82 °F
Dew Point 74 °F
Humidity 86%
Rainfall 0.00 in
Snow Depth Not available.
7:05 AM 8:03 PM
Waning Gibbous, 50% visible
METAR KBAZ 250351Z AUTO 15007KT 10SM CLR 25/22 A3008 RMK AO2 SLP176 T02500222

10-Day Weather Forecast

Almanac

Astronomy

Aug. 24, 2016 Rise Set
Actual Time
Civil Twilight
Nautical Twilight
Astronomical Twilight
Moon
Length of Visible Light
Length of Day
Tomorrow will be .
, % of the Moon is Illuminated

Today's Extremes

State Highs State Lows

Community

WunderPhotos

Upload Photos

1,934,798 photos uploaded!

WunderBlog® & News

Nearby

Air Quality

  Air Quality AQ Index Pollutant
Not available.

Snow Depth

Station Depth Elevation

Earthquake Activity

City Distance Mag. Time & Date
Minimum magnitude displayed is 2.5.

Coastal Water Temperatures

Place Temperature

Stations

Nearby Weather Stations

Station Location Temp. Windchill Dew Point Humidity Wind Precip. Elev Updated Type
                   

Watches & Warnings

There are currently no watches in effect.